createdAt,value
2022-08-20T00:00:19.179Z,2.50
2022-08-20T00:02:48.439Z,2.90
2022-08-20T00:05:16.673Z,2.40
2022-08-20T00:07:44.789Z,2.67
2022-08-20T00:10:14.228Z,2.70
2022-08-20T00:12:44.830Z,2.83
2022-08-20T00:15:13.578Z,2.40
2022-08-20T00:28:19.147Z,2.57
2022-08-20T00:30:47.159Z,2.10
2022-08-20T00:33:16.327Z,2.77
2022-08-20T00:35:46.908Z,2.90
2022-08-20T00:38:15.015Z,2.27
2022-08-20T00:40:46.245Z,2.40
2022-08-20T00:43:31.231Z,2.30
2022-08-20T00:45:59.257Z,2.47
2022-08-20T00:48:28.061Z,2.50
2022-08-20T00:50:56.901Z,2.60
2022-08-20T00:53:25.166Z,2.20
2022-08-20T00:55:53.323Z,2.63
2022-08-20T00:58:21.481Z,2.60
2022-08-20T01:00:51.003Z,2.67
2022-08-20T01:03:20.414Z,2.60
2022-08-20T01:05:50.018Z,2.70
2022-08-20T01:08:19.746Z,2.50
2022-08-20T01:10:49.828Z,2.90
2022-08-20T01:13:20.558Z,2.97
2022-08-20T01:15:51.798Z,3.00
2022-08-20T01:18:23.052Z,2.67
2022-08-20T01:20:52.729Z,2.57
2022-08-20T01:23:30.246Z,2.97
2022-08-20T01:26:04.289Z,2.73
2022-08-20T01:28:36.503Z,3.43
2022-08-20T01:31:05.019Z,3.60
2022-08-20T01:33:33.246Z,3.10
2022-08-20T01:36:01.894Z,2.50
2022-08-20T01:38:30.313Z,2.60
2022-08-20T01:41:39.939Z,2.77
2022-08-20T01:44:09.192Z,2.50
2022-08-20T01:46:46.410Z,2.70
2022-08-20T01:49:22.927Z,2.90
2022-08-20T01:51:52.076Z,2.67
2022-08-20T01:54:20.167Z,2.77
2022-08-20T01:57:01.647Z,2.50
2022-08-20T01:59:29.960Z,2.80
2022-08-20T02:01:58.146Z,2.57
2022-08-20T02:04:27.106Z,2.80
2022-08-20T02:06:57.725Z,2.97
2022-08-20T02:09:26.946Z,2.73
2022-08-20T02:11:56.709Z,2.70
2022-08-20T02:14:24.977Z,2.60
2022-08-20T02:16:55.946Z,2.63
2022-08-20T02:19:27.574Z,2.67
2022-08-20T02:21:57.149Z,2.50
2022-08-20T02:24:25.256Z,2.57
2022-08-20T02:26:53.470Z,2.80
2022-08-20T02:29:23.850Z,2.47
2022-08-20T02:32:32.537Z,2.10
2022-08-20T02:34:42.362Z,2.80
2022-08-20T02:37:10.659Z,2.70
2022-08-20T02:39:38.728Z,2.40
2022-08-20T02:42:07.180Z,2.50
2022-08-20T02:44:36.994Z,2.60
2022-08-20T02:47:05.428Z,2.73
2022-08-20T02:49:33.560Z,2.37
2022-08-20T02:52:01.728Z,2.53
2022-08-20T02:54:32.219Z,2.80
2022-08-20T02:57:00.279Z,2.47
2022-08-20T02:59:28.406Z,2.23
2022-08-20T03:02:00.770Z,2.70
2022-08-20T03:04:29.430Z,2.77
2022-08-20T03:06:57.674Z,2.40
2022-08-20T03:09:25.764Z,2.50
2022-08-20T03:11:54.471Z,2.50
2022-08-20T03:14:25.410Z,2.43
2022-08-20T03:16:53.506Z,2.40
2022-08-20T03:19:23.055Z,2.50
2022-08-20T03:21:51.302Z,2.70
2022-08-20T03:24:19.438Z,2.50
2022-08-20T03:26:47.533Z,3.00
2022-08-20T03:29:15.620Z,2.50
2022-08-20T03:31:43.587Z,2.53
2022-08-20T03:34:11.941Z,2.70
2022-08-20T03:36:41.527Z,2.33
2022-08-20T03:39:13.211Z,2.67
2022-08-20T03:41:41.218Z,2.47
2022-08-20T03:44:10.229Z,2.70
2022-08-20T03:46:39.049Z,2.77
2022-08-20T03:49:07.258Z,2.50
2022-08-20T03:51:58.147Z,2.67
2022-08-20T03:54:24.808Z,3.00
2022-08-20T03:56:59.583Z,2.87
2022-08-20T03:59:27.574Z,2.60
2022-08-20T04:01:55.574Z,2.90
2022-08-20T04:04:23.467Z,2.73
2022-08-20T04:06:51.584Z,2.80
2022-08-20T04:09:19.609Z,2.47
2022-08-20T04:11:49.279Z,2.83
2022-08-20T04:14:19.581Z,2.73
2022-08-20T04:16:49.071Z,2.67
2022-08-20T04:19:17.451Z,2.97
2022-08-20T04:21:48.629Z,2.67
2022-08-20T04:24:24.506Z,2.80
2022-08-20T04:27:02.829Z,2.47
2022-08-20T04:29:32.240Z,3.17
2022-08-20T04:32:02.799Z,2.70
2022-08-20T04:34:34.389Z,2.77
2022-08-20T04:37:02.405Z,2.67
2022-08-20T04:39:30.760Z,2.47
2022-08-20T04:41:58.844Z,2.30
2022-08-20T04:44:28.855Z,2.80
2022-08-20T04:46:56.945Z,2.70
2022-08-20T04:49:26.478Z,2.60
2022-08-20T04:51:54.849Z,2.30
2022-08-20T04:54:22.858Z,2.83
2022-08-20T04:56:50.875Z,2.77
2022-08-20T04:59:18.923Z,2.60
2022-08-20T05:01:48.509Z,3.10
2022-08-20T05:04:16.505Z,2.70
2022-08-20T05:06:44.897Z,2.50
2022-08-20T05:09:12.877Z,2.60
2022-08-20T05:11:40.813Z,2.90
2022-08-20T05:14:09.876Z,2.60
2022-08-20T05:16:41.140Z,2.50
2022-08-20T05:19:11.913Z,2.67
2022-08-20T05:21:39.941Z,2.40
2022-08-20T05:24:08.183Z,2.80
2022-08-20T05:26:36.267Z,2.40
2022-08-20T05:29:06.901Z,2.57
2022-08-20T05:31:35.270Z,2.60
2022-08-20T05:34:03.649Z,3.17
2022-08-20T05:36:33.245Z,2.30
2022-08-20T05:39:01.255Z,2.60
2022-08-20T05:41:30.595Z,2.67
2022-08-20T05:44:01.387Z,2.80
2022-08-20T05:46:31.550Z,2.43
2022-08-20T05:49:00.292Z,2.50
2022-08-20T05:51:29.013Z,2.70
2022-08-20T05:53:59.472Z,2.70
2022-08-20T05:56:30.852Z,2.40
2022-08-20T05:59:00.737Z,2.57
2022-08-20T06:01:29.030Z,2.83
2022-08-20T06:04:14.882Z,2.53
2022-08-20T06:06:45.008Z,2.50
2022-08-20T06:09:16.251Z,2.07
2022-08-20T06:11:44.557Z,2.40
2022-08-20T06:14:12.623Z,2.50
2022-08-20T06:16:57.232Z,2.43
2022-08-20T06:19:26.470Z,2.77
2022-08-20T06:21:56.611Z,2.30
2022-08-20T06:24:27.050Z,2.50
2022-08-20T06:26:57.378Z,2.40
2022-08-20T06:29:25.385Z,2.20
2022-08-20T06:31:53.338Z,2.27
2022-08-20T06:34:21.580Z,2.30
2022-08-20T06:36:49.701Z,2.33
2022-08-20T06:39:17.875Z,2.30
2022-08-20T06:41:47.448Z,2.23
2022-08-20T06:44:16.532Z,2.30
2022-08-20T06:46:44.769Z,2.60
2022-08-20T06:49:14.181Z,2.60
2022-08-20T06:51:42.171Z,1.90
2022-08-20T06:54:10.224Z,2.10
2022-08-20T06:56:38.251Z,2.03
2022-08-20T06:59:07.909Z,2.30
2022-08-20T07:01:35.997Z,2.37
2022-08-20T07:04:05.612Z,1.93
2022-08-20T07:06:33.785Z,1.90
2022-08-20T07:09:01.767Z,2.00
2022-08-20T07:11:29.838Z,2.10
2022-08-20T07:13:58.413Z,2.00
2022-08-20T07:16:28.053Z,1.93
2022-08-20T07:18:56.209Z,2.10
2022-08-20T07:21:27.157Z,1.83
2022-08-20T07:23:55.275Z,2.47
2022-08-20T07:26:23.305Z,2.23
2022-08-20T07:28:51.378Z,1.80
2022-08-20T07:31:36.922Z,1.57
2022-08-20T07:34:06.535Z,1.70
2022-08-20T07:36:34.886Z,1.80
2022-08-20T07:39:05.825Z,2.20
2022-08-20T07:41:34.471Z,2.07
2022-08-20T07:44:02.586Z,1.83
2022-08-20T07:46:31.722Z,1.83
2022-08-20T07:48:59.885Z,2.17
2022-08-20T07:51:29.616Z,2.07
2022-08-20T07:54:00.220Z,1.67
2022-08-20T07:56:28.516Z,2.30
2022-08-20T07:59:03.513Z,2.13
2022-08-20T08:01:32.402Z,1.70
2022-08-20T08:04:01.021Z,1.70
2022-08-20T08:06:31.492Z,1.70
2022-08-20T08:09:03.487Z,1.67
2022-08-20T08:11:33.281Z,1.90
2022-08-20T08:14:01.310Z,1.90
2022-08-20T08:16:31.097Z,1.60
2022-08-20T08:18:59.943Z,1.87
2022-08-20T08:21:28.462Z,2.00
2022-08-20T08:23:58.383Z,1.50
2022-08-20T08:26:28.941Z,1.57
2022-08-20T08:28:58.276Z,1.73
2022-08-20T08:31:28.322Z,2.00
2022-08-20T08:33:56.441Z,1.70
2022-08-20T08:36:27.417Z,1.80
2022-08-20T08:38:57.047Z,1.70
2022-08-20T08:41:31.357Z,1.87
2022-08-20T08:44:04.606Z,1.83
2022-08-20T08:46:32.430Z,1.90
2022-08-20T08:49:01.673Z,1.60
2022-08-20T08:51:31.599Z,2.00
2022-08-20T08:54:04.738Z,1.80
2022-08-20T08:56:34.554Z,1.53
2022-08-20T08:59:04.095Z,1.53
2022-08-20T09:01:56.258Z,1.70
2022-08-20T09:04:22.033Z,1.70
2022-08-20T09:06:52.327Z,1.70
2022-08-20T09:09:24.290Z,1.50
2022-08-20T09:11:54.009Z,1.30
2022-08-20T09:14:22.944Z,1.57
2022-08-20T09:16:52.761Z,1.47
2022-08-20T09:19:21.589Z,1.30
2022-08-20T09:21:49.539Z,1.53
2022-08-20T09:24:17.946Z,1.40
2022-08-20T09:26:47.435Z,1.40
2022-08-20T09:29:15.585Z,1.37
2022-08-20T09:31:45.185Z,1.30
2022-08-20T09:34:14.621Z,1.37
2022-08-20T09:36:42.678Z,1.87
2022-08-20T09:39:12.597Z,1.30
2022-08-20T09:41:41.357Z,1.47
2022-08-20T09:44:10.959Z,1.30
2022-08-20T09:46:38.897Z,1.33
2022-08-20T09:49:06.916Z,1.50
2022-08-20T09:51:38.389Z,1.20
2022-08-20T09:54:06.873Z,1.13
2022-08-20T09:56:34.861Z,1.23
2022-08-20T09:59:03.146Z,1.57
2022-08-20T10:01:33.284Z,1.30
2022-08-20T10:04:01.362Z,1.23
2022-08-20T10:06:29.336Z,1.27
2022-08-20T10:08:57.272Z,1.67
2022-08-20T10:11:25.299Z,1.40
2022-08-20T10:13:53.353Z,1.10
2022-08-20T10:16:21.441Z,1.30
2022-08-20T10:18:50.989Z,1.37
2022-08-20T10:21:18.881Z,1.80
2022-08-20T10:23:46.873Z,1.53
2022-08-20T10:26:15.269Z,1.30
2022-08-20T10:28:43.363Z,1.30
2022-08-20T10:31:12.139Z,1.20
2022-08-20T10:33:41.014Z,1.40
2022-08-20T10:36:10.952Z,1.20
2022-08-20T10:38:39.116Z,1.27
2022-08-20T10:41:07.386Z,1.13
2022-08-20T10:43:35.481Z,1.20
2022-08-20T10:46:03.502Z,1.10
2022-08-20T10:48:31.415Z,1.33
2022-08-20T10:50:59.475Z,1.10
2022-08-20T10:53:29.099Z,1.20
2022-08-20T10:55:57.661Z,1.10
2022-08-20T10:58:25.712Z,1.07
2022-08-20T11:00:53.840Z,1.10
2022-08-20T11:03:21.809Z,1.00
2022-08-20T11:05:49.738Z,1.20
2022-08-20T11:08:33.578Z,1.00
2022-08-20T11:11:04.010Z,1.00
2022-08-20T11:13:32.064Z,1.30
2022-08-20T11:15:59.913Z,1.10
2022-08-20T11:18:27.694Z,1.00
2022-08-20T11:20:55.623Z,1.30
2022-08-20T11:23:23.557Z,1.20
2022-08-20T11:25:51.699Z,0.97
2022-08-20T11:28:31.248Z,1.00
2022-08-20T11:31:00.276Z,1.00
2022-08-20T11:33:28.324Z,1.10
2022-08-20T11:35:56.276Z,0.97
2022-08-20T11:38:24.201Z,0.93
2022-08-20T11:40:52.176Z,0.80
2022-08-20T11:43:21.599Z,1.10
2022-08-20T11:45:51.661Z,0.90
2022-08-20T11:48:19.808Z,0.70
2022-08-20T11:50:47.765Z,0.70
2022-08-20T11:53:15.712Z,0.80
2022-08-20T11:55:43.681Z,0.90
2022-08-20T11:58:11.851Z,0.80
2022-08-20T12:00:40.956Z,0.80
2022-08-20T12:03:10.165Z,0.70
2022-08-20T12:05:38.510Z,0.90
2022-08-20T12:08:06.547Z,0.80
2022-08-20T12:10:34.709Z,0.80
2022-08-20T12:13:04.713Z,0.80
2022-08-20T12:15:33.215Z,0.80
2022-08-20T12:18:03.424Z,0.80
2022-08-20T12:20:31.467Z,0.60
2022-08-20T12:22:59.917Z,0.70
2022-08-20T12:25:27.953Z,0.65
2022-08-20T12:27:56.456Z,0.70
2022-08-20T12:30:25.215Z,0.60
2022-08-20T12:32:53.287Z,0.70
2022-08-20T12:35:22.788Z,0.60
2022-08-20T12:37:50.593Z,0.60
2022-08-20T12:40:30.608Z,0.80
2022-08-20T12:43:00.967Z,0.70
2022-08-20T12:45:28.772Z,0.60
2022-08-20T12:48:01.188Z,0.90
2022-08-20T12:50:31.874Z,0.70
2022-08-20T12:53:00.364Z,0.75
2022-08-20T12:55:28.476Z,0.90
2022-08-20T12:57:57.380Z,1.00
2022-08-20T13:00:27.070Z,0.90
2022-08-20T13:02:56.238Z,0.70
2022-08-20T13:05:24.221Z,0.85
2022-08-20T13:07:53.990Z,0.80
2022-08-20T13:10:23.057Z,0.70
2022-08-20T13:12:51.121Z,1.17
2022-08-20T13:15:19.389Z,0.80
2022-08-20T13:17:47.356Z,0.80
2022-08-20T13:20:16.607Z,0.80
2022-08-20T13:22:44.671Z,0.93
2022-08-20T13:25:14.155Z,0.70
2022-08-20T13:27:42.134Z,0.73
2022-08-20T13:30:11.092Z,0.70
2022-08-20T13:32:39.064Z,1.00
2022-08-20T13:35:07.573Z,0.90
2022-08-20T13:37:35.692Z,1.00
2022-08-20T13:40:05.065Z,0.80
2022-08-20T13:42:34.630Z,0.80
2022-08-20T13:45:02.626Z,0.87
2022-08-20T13:47:32.473Z,0.60
2022-08-20T13:50:03.798Z,0.70
2022-08-20T13:52:31.985Z,0.77
2022-08-20T13:54:59.700Z,0.70
2022-08-20T13:57:27.747Z,0.73
2022-08-20T13:59:58.218Z,0.70
2022-08-20T14:02:26.073Z,0.70
2022-08-20T14:04:53.957Z,0.70
2022-08-20T14:07:23.487Z,0.80
2022-08-20T14:09:53.978Z,0.80
2022-08-20T14:12:23.196Z,0.77
2022-08-20T14:14:51.278Z,0.80
2022-08-20T14:17:21.933Z,0.77
2022-08-20T14:19:50.088Z,0.90
2022-08-20T14:22:18.722Z,0.70
2022-08-20T14:24:49.183Z,0.77
2022-08-20T14:27:17.788Z,0.80
2022-08-20T14:29:46.049Z,0.70
2022-08-20T14:32:14.168Z,0.80
2022-08-20T14:34:43.856Z,0.70
2022-08-20T14:37:13.555Z,0.70
2022-08-20T14:39:41.693Z,0.80
2022-08-20T14:42:09.796Z,0.80
2022-08-20T14:44:37.876Z,0.70
2022-08-20T14:47:13.700Z,0.90
2022-08-20T14:49:42.999Z,0.80
2022-08-20T14:52:10.891Z,0.93
2022-08-20T14:54:38.743Z,0.90
2022-08-20T14:57:12.833Z,0.80
2022-08-20T14:59:41.112Z,0.87
2022-08-20T15:02:10.897Z,0.70
2022-08-20T15:04:38.982Z,0.80
2022-08-20T15:07:16.356Z,0.80
2022-08-20T15:09:44.293Z,0.70
2022-08-20T15:12:12.180Z,0.70
2022-08-20T15:14:40.023Z,0.80
2022-08-20T15:17:08.669Z,0.77
2022-08-20T15:19:36.875Z,0.70
2022-08-20T15:22:04.779Z,0.90
2022-08-20T15:24:34.184Z,1.23
2022-08-20T15:27:12.645Z,0.80
2022-08-20T15:29:40.645Z,0.93
2022-08-20T15:32:08.869Z,1.00
2022-08-20T15:34:36.949Z,1.00
2022-08-20T15:37:09.136Z,0.80
2022-08-20T15:39:38.573Z,0.90
2022-08-20T15:42:07.045Z,0.80
2022-08-20T15:44:35.285Z,0.90
2022-08-20T15:47:20.402Z,1.00
2022-08-20T15:49:48.470Z,0.90
2022-08-20T15:52:16.613Z,1.20
2022-08-20T15:54:46.218Z,1.07
2022-08-20T15:57:15.503Z,1.00
2022-08-20T15:59:58.990Z,0.90
2022-08-20T16:02:45.206Z,1.10
2022-08-20T16:05:19.212Z,0.97
2022-08-20T16:07:54.683Z,0.90
2022-08-20T16:10:27.510Z,1.20
2022-08-20T16:12:58.042Z,1.20
2022-08-20T16:15:30.729Z,0.87
2022-08-20T16:18:02.351Z,1.07
2022-08-20T16:20:35.364Z,0.90
2022-08-20T16:23:04.046Z,1.03
2022-08-20T16:25:38.757Z,0.90
2022-08-20T16:28:11.503Z,0.90
2022-08-20T16:30:40.769Z,0.90
2022-08-20T16:33:12.261Z,0.97
2022-08-20T16:35:46.318Z,1.17
2022-08-20T16:38:21.029Z,1.40
2022-08-20T16:40:52.554Z,1.00
2022-08-20T16:43:23.203Z,0.90
2022-08-20T16:45:53.245Z,0.93
2022-08-20T16:48:21.388Z,1.00
2022-08-20T16:50:56.859Z,1.17
2022-08-20T16:53:25.601Z,1.20
2022-08-20T16:55:55.191Z,1.23
2022-08-20T16:58:23.112Z,0.90
2022-08-20T17:00:52.158Z,1.00
2022-08-20T17:03:33.562Z,1.30
2022-08-20T17:06:16.167Z,1.10
2022-08-20T17:08:50.020Z,1.00
2022-08-20T17:11:24.949Z,0.80
2022-08-20T17:14:06.859Z,1.37
2022-08-20T17:16:35.892Z,0.90
2022-08-20T17:19:09.859Z,1.00
2022-08-20T17:21:38.372Z,1.30
2022-08-20T17:24:17.041Z,0.90
2022-08-20T17:26:47.698Z,1.30
2022-08-20T17:29:16.941Z,1.03
2022-08-20T17:31:46.033Z,0.90
2022-08-20T17:34:17.996Z,1.00
2022-08-20T17:36:54.558Z,1.10
2022-08-20T17:39:22.994Z,0.93
2022-08-20T17:41:54.716Z,1.00
2022-08-20T17:44:24.589Z,1.40
2022-08-20T17:46:53.721Z,1.10
2022-08-20T17:49:26.940Z,1.10
2022-08-20T17:51:55.386Z,1.20
2022-08-20T17:54:27.129Z,1.20
2022-08-20T17:56:57.336Z,1.13
2022-08-20T17:59:36.370Z,1.10
2022-08-20T18:02:17.024Z,1.00
2022-08-20T18:04:45.245Z,0.90
2022-08-20T18:07:16.612Z,1.10
2022-08-20T18:09:46.897Z,1.20
2022-08-20T18:12:24.261Z,1.10
2022-08-20T18:15:07.063Z,1.33
2022-08-20T18:17:54.671Z,1.00
2022-08-20T18:20:35.588Z,1.03
2022-08-20T18:23:06.871Z,1.20
2022-08-20T18:25:36.586Z,1.50
2022-08-20T18:28:08.504Z,1.10
2022-08-20T18:30:36.418Z,1.33
2022-08-20T18:33:07.503Z,1.00
2022-08-20T18:35:37.581Z,1.30
2022-08-20T18:38:13.737Z,1.00
2022-08-20T18:40:41.702Z,1.50
2022-08-20T18:43:14.935Z,1.33
2022-08-20T18:45:42.937Z,1.50
2022-08-20T18:48:21.478Z,1.70
2022-08-20T18:50:50.722Z,1.40
2022-08-20T18:53:20.860Z,1.20
2022-08-20T18:55:49.337Z,1.27
2022-08-20T18:58:31.432Z,1.20
2022-08-20T19:00:59.416Z,1.43
2022-08-20T19:03:30.425Z,1.20
2022-08-20T19:06:14.245Z,1.30
2022-08-20T19:08:46.195Z,1.20
2022-08-20T19:11:46.545Z,1.30
2022-08-20T19:14:34.053Z,1.30
2022-08-20T19:17:05.341Z,1.60
2022-08-20T19:19:33.338Z,1.50
2022-08-20T19:22:01.704Z,1.50
2022-08-20T19:24:31.015Z,1.90
2022-08-20T19:27:01.233Z,1.43
2022-08-20T19:29:32.059Z,1.47
2022-08-20T19:32:00.993Z,1.87
2022-08-20T19:34:29.360Z,1.50
2022-08-20T19:36:59.129Z,1.60
2022-08-20T19:39:37.380Z,1.80
2022-08-20T19:42:06.607Z,1.57
2022-08-20T19:44:38.266Z,1.80
2022-08-20T19:47:06.749Z,1.33
2022-08-20T19:49:42.880Z,1.60
2022-08-20T19:52:21.593Z,1.90
2022-08-20T19:54:50.616Z,1.80
2022-08-20T19:57:18.989Z,1.80
2022-08-20T19:59:55.362Z,1.50
2022-08-20T20:02:24.077Z,1.73
2022-08-20T20:04:54.837Z,1.50
2022-08-20T20:07:25.531Z,1.20
2022-08-20T20:09:54.499Z,1.40
2022-08-20T20:12:23.197Z,1.30
2022-08-20T20:14:53.395Z,1.60
2022-08-20T20:17:23.309Z,1.30
2022-08-20T20:19:53.506Z,1.50
2022-08-20T20:22:26.036Z,1.30
2022-08-20T20:25:01.530Z,1.60
2022-08-20T20:27:32.114Z,1.17
2022-08-20T20:30:02.251Z,1.33
2022-08-20T20:32:30.410Z,1.63
2022-08-20T20:34:59.397Z,1.40
2022-08-20T20:37:50.520Z,1.30
2022-08-20T20:40:24.323Z,1.30
2022-08-20T20:42:59.309Z,1.37
2022-08-20T20:45:32.097Z,1.30
2022-08-20T20:48:00.208Z,1.20
2022-08-20T20:50:32.713Z,1.37
2022-08-20T20:53:00.822Z,1.40
2022-08-20T20:55:29.752Z,1.30
2022-08-20T20:57:57.858Z,1.60
2022-08-20T21:00:28.663Z,1.23
2022-08-20T21:02:58.386Z,1.53
2022-08-20T21:05:30.641Z,1.30
2022-08-20T21:08:01.203Z,1.50
2022-08-20T21:10:32.255Z,1.60
2022-08-20T21:13:00.849Z,1.33
2022-08-20T21:15:28.757Z,1.47
2022-08-20T21:17:59.357Z,1.47
2022-08-20T21:20:27.803Z,1.60
2022-08-20T21:22:57.427Z,1.70
2022-08-20T21:25:25.884Z,1.70
2022-08-20T21:27:54.894Z,1.40
2022-08-20T21:30:23.767Z,1.30
2022-08-20T21:32:51.968Z,1.60
2022-08-20T21:35:21.548Z,1.40
2022-08-20T21:37:49.534Z,1.50
2022-08-20T21:40:18.179Z,1.40
2022-08-20T21:42:50.183Z,1.23
2022-08-20T21:45:19.776Z,1.37
2022-08-20T21:47:48.698Z,2.20
2022-08-20T21:50:18.786Z,1.70
2022-08-20T21:52:55.167Z,1.30
2022-08-20T21:55:27.964Z,1.87
2022-08-20T21:57:56.073Z,1.60
2022-08-20T22:00:48.569Z,1.47
2022-08-20T22:03:16.838Z,1.67
2022-08-20T22:05:48.348Z,1.70
2022-08-20T22:08:18.127Z,1.40
2022-08-20T22:10:46.680Z,1.70
2022-08-20T22:13:17.790Z,1.70
2022-08-20T22:15:56.231Z,1.77
2022-08-20T22:18:27.476Z,2.00
2022-08-20T22:20:56.074Z,1.40
2022-08-20T22:23:25.715Z,1.60
2022-08-20T22:25:54.136Z,1.97
2022-08-20T22:28:28.938Z,2.00
2022-08-20T22:30:57.090Z,1.90
2022-08-20T22:33:25.209Z,1.83
2022-08-20T22:35:54.602Z,1.80
2022-08-20T22:38:22.588Z,1.53
2022-08-20T22:40:52.937Z,1.93
2022-08-20T22:43:21.334Z,1.83
2022-08-20T22:45:50.248Z,1.90
2022-08-20T22:48:19.328Z,1.80
2022-08-20T22:50:47.396Z,1.80
2022-08-20T22:53:15.476Z,2.40
2022-08-20T22:55:43.490Z,2.00
2022-08-20T22:58:13.019Z,1.87
2022-08-20T23:00:41.013Z,1.80
2022-08-20T23:03:09.045Z,2.03
2022-08-20T23:05:37.523Z,2.23
2022-08-20T23:08:05.673Z,1.80
2022-08-20T23:10:33.949Z,2.10
2022-08-20T23:13:02.038Z,2.03
2022-08-20T23:15:31.356Z,1.70
2022-08-20T23:18:03.654Z,1.60
2022-08-20T23:20:34.790Z,1.97
2022-08-20T23:23:02.725Z,1.70
2022-08-20T23:25:30.542Z,1.97
2022-08-20T23:28:03.502Z,1.70
2022-08-20T23:30:34.012Z,1.90
2022-08-20T23:33:02.310Z,1.87
2022-08-20T23:35:32.964Z,2.20
2022-08-20T23:38:01.363Z,1.93
2022-08-20T23:40:29.877Z,1.83
2022-08-20T23:42:58.179Z,2.20
2022-08-20T23:45:26.471Z,2.10
2022-08-20T23:47:56.094Z,2.00
2022-08-20T23:50:26.350Z,1.73
2022-08-20T23:52:54.463Z,2.10
2022-08-20T23:55:23.351Z,2.10
2022-08-20T23:57:51.796Z,1.77
